createdAt,value
2019-02-05T00:01:05.536Z,5.80
2019-02-05T00:03:48.474Z,5.90
2019-02-05T00:06:29.917Z,5.90
2019-02-05T00:09:11.001Z,5.90
2019-02-05T00:11:52.325Z,5.60
2019-02-05T00:14:33.670Z,5.50
2019-02-05T00:17:15.173Z,5.30
2019-02-05T00:19:55.961Z,5.20
2019-02-05T00:22:37.332Z,5.20
2019-02-05T00:25:18.929Z,5.30
2019-02-05T00:28:00.289Z,5.40
2019-02-05T00:30:41.460Z,5.60
2019-02-05T00:33:22.873Z,5.50
2019-02-05T00:36:04.423Z,5.10
2019-02-05T00:38:45.817Z,4.90
2019-02-05T00:41:27.431Z,5.10
2019-02-05T00:44:08.808Z,5.20
2019-02-05T00:46:50.424Z,5.40
2019-02-05T00:49:31.765Z,5.60
2019-02-05T00:52:13.046Z,5.30
2019-02-05T00:54:54.297Z,5.10
2019-02-05T00:57:39.180Z,5.00
2019-02-05T01:00:20.436Z,5.10
2019-02-05T01:03:01.751Z,5.30
2019-02-05T01:05:44.138Z,5.50
2019-02-05T01:08:25.386Z,5.50
2019-02-05T01:11:07.033Z,5.60
2019-02-05T01:16:36.969Z,5.60
2019-02-05T01:19:18.235Z,5.60
2019-02-05T01:21:59.719Z,5.50
2019-02-05T01:24:41.192Z,5.40
2019-02-05T01:27:22.662Z,5.50
2019-02-05T01:30:03.437Z,5.50
2019-02-05T01:32:45.002Z,5.50
2019-02-05T01:35:26.109Z,5.50
2019-02-05T01:38:06.833Z,5.50
2019-02-05T01:40:53.655Z,5.60
2019-02-05T01:43:35.159Z,5.60
2019-02-05T01:46:16.479Z,5.50
2019-02-05T01:54:51.737Z,5.60
2019-02-05T01:57:33.256Z,5.60
2019-02-05T02:00:14.708Z,5.40
2019-02-05T02:02:56.303Z,5.00
2019-02-05T02:05:38.929Z,5.00
2019-02-05T02:08:20.268Z,5.10
2019-02-05T02:11:02.530Z,5.10
2019-02-05T02:13:43.365Z,5.20
2019-02-05T02:16:25.011Z,5.20
2019-02-05T02:19:06.504Z,5.20
2019-02-05T02:21:48.161Z,5.30
2019-02-05T02:24:28.898Z,5.40
2019-02-05T02:27:13.547Z,5.20
2019-02-05T02:29:54.245Z,5.30
2019-02-05T02:32:23.858Z,5.20
2019-02-05T02:34:53.342Z,5.40
2019-02-05T02:37:34.513Z,5.40
2019-02-05T02:40:15.137Z,5.50
2019-02-05T02:42:56.519Z,5.30
2019-02-05T02:45:37.883Z,5.10
2019-02-05T02:48:19.248Z,5.00
2019-02-05T02:51:01.760Z,4.90
2019-02-05T02:53:42.538Z,4.90
2019-02-05T02:56:25.320Z,4.90
2019-02-05T02:59:06.512Z,4.90
2019-02-05T03:01:48.024Z,4.90
2019-02-05T03:04:29.384Z,4.90
2019-02-05T03:07:14.340Z,4.90
2019-02-05T03:09:55.323Z,5.00
2019-02-05T03:12:36.590Z,5.10
2019-02-05T03:15:18.046Z,5.20
2019-02-05T03:17:59.603Z,5.20
2019-02-05T03:20:41.182Z,5.30
2019-02-05T03:23:22.816Z,5.30
2019-02-05T03:26:04.098Z,5.10
2019-02-05T03:28:45.020Z,5.10
2019-02-05T03:31:24.610Z,5.00
2019-02-05T03:34:13.137Z,5.00
2019-02-05T03:36:54.359Z,4.90
2019-02-05T03:39:42.864Z,4.70
2019-02-05T03:42:24.073Z,4.90
2019-02-05T03:45:05.448Z,5.10
2019-02-05T03:47:46.169Z,5.10
2019-02-05T03:50:27.643Z,5.10
2019-02-05T03:53:09.128Z,5.10
2019-02-05T03:55:50.110Z,4.70
2019-02-05T03:58:30.840Z,4.60
2019-02-05T04:01:12.347Z,4.70
2019-02-05T04:03:53.215Z,4.80
2019-02-05T04:06:34.349Z,4.80
2019-02-05T04:09:15.264Z,4.90
2019-02-05T04:12:19.947Z,5.00
2019-02-05T04:18:46.386Z,4.50
2019-02-05T04:21:27.519Z,4.30
2019-02-05T04:24:29.188Z,4.20
2019-02-05T04:27:45.034Z,4.10
2019-02-05T04:30:22.644Z,4.30
2019-02-05T04:33:04.465Z,4.50
2019-02-05T04:35:46.143Z,4.70
2019-02-05T04:38:35.852Z,4.90
2019-02-05T04:41:43.455Z,4.90
2019-02-05T04:44:44.140Z,5.00
2019-02-05T04:47:41.983Z,5.10
2019-02-05T04:50:37.820Z,4.90
2019-02-05T04:53:18.678Z,4.60
2019-02-05T04:56:00.199Z,4.50
2019-02-05T04:58:40.990Z,4.60
2019-02-05T05:01:25.679Z,4.60
2019-02-05T05:04:07.315Z,4.50
2019-02-05T05:06:48.836Z,4.30
2019-02-05T05:09:29.793Z,4.00
2019-02-05T05:15:00.787Z,4.30
2019-02-05T05:17:42.385Z,4.10
2019-02-05T05:20:23.942Z,4.00
2019-02-05T05:23:05.408Z,4.00
2019-02-05T05:25:45.047Z,4.20
2019-02-05T05:28:33.510Z,4.30
2019-02-05T05:31:14.472Z,4.40
2019-02-05T05:33:55.256Z,4.10
2019-02-05T05:36:36.835Z,4.20
2019-02-05T05:39:18.258Z,4.40
2019-02-05T05:45:07.428Z,4.40
2019-02-05T05:47:55.929Z,4.40
2019-02-05T05:50:36.856Z,4.40
2019-02-05T05:53:17.726Z,4.20
2019-02-05T05:55:58.926Z,4.10
2019-02-05T05:58:41.475Z,4.10
2019-02-05T06:01:22.666Z,4.20
2019-02-05T06:04:10.027Z,4.20
2019-02-05T06:06:57.193Z,4.20
2019-02-05T06:09:38.355Z,4.10
2019-02-05T06:12:08.054Z,4.00
2019-02-05T06:14:37.583Z,3.90
2019-02-05T06:17:07.529Z,4.00
2019-02-05T06:19:37.073Z,3.90
2019-02-05T06:22:06.668Z,3.90
2019-02-05T06:24:47.592Z,3.90
2019-02-05T06:27:28.614Z,3.80
2019-02-05T06:30:09.937Z,3.80
2019-02-05T06:32:51.408Z,3.70
2019-02-05T06:35:32.936Z,3.70
2019-02-05T06:38:12.693Z,3.60
2019-02-05T06:41:20.289Z,3.60
2019-02-05T06:44:01.929Z,3.70
2019-02-05T06:46:42.798Z,3.70
2019-02-05T06:49:24.478Z,3.70
2019-02-05T06:52:06.040Z,3.50
2019-02-05T06:54:47.671Z,3.40
2019-02-05T06:57:29.021Z,3.40
2019-02-05T07:00:10.623Z,3.50
2019-02-05T07:02:53.168Z,3.60
2019-02-05T07:05:34.969Z,3.70
2019-02-05T07:08:15.963Z,3.60
2019-02-05T07:10:57.581Z,3.80
2019-02-05T07:13:37.329Z,3.60
2019-02-05T07:16:06.864Z,3.50
2019-02-05T07:18:36.444Z,3.60
2019-02-05T07:21:05.900Z,3.60
2019-02-05T07:23:35.644Z,3.60
2019-02-05T07:26:05.528Z,3.70
2019-02-05T07:28:35.069Z,3.70
2019-02-05T07:31:04.923Z,3.80
2019-02-05T07:33:34.481Z,3.80
2019-02-05T07:36:04.133Z,3.80
2019-02-05T07:38:33.803Z,3.80
2019-02-05T07:41:03.291Z,3.90
2019-02-05T07:43:32.852Z,4.00
2019-02-05T07:46:02.459Z,4.20
2019-02-05T07:48:32.192Z,4.30
2019-02-05T07:51:01.784Z,4.50
2019-02-05T07:53:33.250Z,4.50
2019-02-05T07:56:02.461Z,4.60
2019-02-05T07:58:32.058Z,4.50
2019-02-05T08:01:01.605Z,4.60
2019-02-05T08:03:31.446Z,4.60
2019-02-05T08:06:01.323Z,4.60
2019-02-05T08:08:30.864Z,4.60
2019-02-05T08:11:00.437Z,4.70
2019-02-05T08:13:30.038Z,4.90
2019-02-05T08:15:59.536Z,4.90
2019-02-05T08:18:29.080Z,5.00
2019-02-05T08:20:58.692Z,4.90
2019-02-05T08:23:28.334Z,4.90
2019-02-05T08:25:57.903Z,5.00
2019-02-05T08:28:27.468Z,5.20
2019-02-05T08:30:56.988Z,5.30
2019-02-05T08:33:30.314Z,5.40
2019-02-05T08:35:59.835Z,5.50
2019-02-05T08:38:29.585Z,5.40
2019-02-05T08:40:59.122Z,5.30
2019-02-05T08:43:28.665Z,5.40
2019-02-05T08:45:58.204Z,5.40
2019-02-05T08:48:27.739Z,5.50
2019-02-05T08:50:57.328Z,5.50
2019-02-05T08:53:26.873Z,5.60
2019-02-05T08:55:56.555Z,5.60
2019-02-05T08:58:31.214Z,5.80
2019-02-05T09:00:57.593Z,5.90
2019-02-05T09:03:27.137Z,5.90
2019-02-05T09:05:56.683Z,6.00
2019-02-05T09:08:26.366Z,6.10
2019-02-05T09:10:55.979Z,6.30
2019-02-05T09:13:25.532Z,6.40
2019-02-05T09:15:55.251Z,6.50
2019-02-05T09:18:24.764Z,6.60
2019-02-05T09:20:54.428Z,6.70
2019-02-05T09:23:25.044Z,6.70
2019-02-05T09:25:54.982Z,6.80
2019-02-05T09:28:24.571Z,6.70
2019-02-05T09:30:54.091Z,6.80
2019-02-05T09:33:24.936Z,7.00
2019-02-05T09:35:54.456Z,7.00
2019-02-05T09:38:24.079Z,7.10
2019-02-05T09:40:53.615Z,7.10
2019-02-05T09:43:25.859Z,7.20
2019-02-05T09:45:55.510Z,7.30
2019-02-05T09:48:25.041Z,7.40
2019-02-05T09:50:54.609Z,7.50
2019-02-05T09:53:24.173Z,7.70
2019-02-05T09:55:53.993Z,7.70
2019-02-05T09:58:23.711Z,7.60
2019-02-05T10:00:53.682Z,7.60
2019-02-05T10:03:23.184Z,7.80
2019-02-05T10:05:52.678Z,8.00
2019-02-05T10:08:22.190Z,8.10
2019-02-05T10:10:51.632Z,8.10
2019-02-05T10:13:21.988Z,8.10
2019-02-05T10:15:51.630Z,8.30
2019-02-05T10:18:21.220Z,8.40
2019-02-05T10:20:51.043Z,8.50
2019-02-05T10:23:20.726Z,8.40
2019-02-05T10:25:50.281Z,8.40
2019-02-05T10:28:19.893Z,8.60
2019-02-05T10:30:49.738Z,8.60
2019-02-05T10:33:19.411Z,8.70
2019-02-05T10:35:48.901Z,8.70
2019-02-05T10:38:18.601Z,8.90
2019-02-05T10:40:48.192Z,9.00
2019-02-05T10:43:17.926Z,9.00
2019-02-05T10:45:47.698Z,9.00
2019-02-05T10:48:17.266Z,8.90
2019-02-05T10:50:46.891Z,9.10
2019-02-05T10:53:16.386Z,9.20
2019-02-05T10:55:45.958Z,9.30
2019-02-05T10:58:15.518Z,9.40
2019-02-05T11:00:45.163Z,9.50
2019-02-05T11:03:14.789Z,9.60
2019-02-05T11:05:44.331Z,9.70
2019-02-05T11:08:13.939Z,9.60
2019-02-05T11:10:43.492Z,9.70
2019-02-05T11:13:13.146Z,9.80
2019-02-05T11:15:42.592Z,9.80
2019-02-05T11:18:12.272Z,9.90
2019-02-05T11:20:41.819Z,9.80
2019-02-05T11:23:11.512Z,9.90
2019-02-05T11:25:41.218Z,9.90
2019-02-05T11:28:10.812Z,10.00
2019-02-05T11:30:44.990Z,10.00
2019-02-05T11:33:15.188Z,10.00
2019-02-05T11:35:44.752Z,10.20
2019-02-05T11:38:14.413Z,10.30
2019-02-05T11:40:43.985Z,10.40
2019-02-05T11:43:13.613Z,10.30
2019-02-05T11:45:43.188Z,10.30
2019-02-05T11:48:16.449Z,10.40
2019-02-05T11:50:46.045Z,10.40
2019-02-05T11:53:15.603Z,10.50
2019-02-05T11:55:45.182Z,10.50
2019-02-05T11:58:15.378Z,10.50
2019-02-05T12:01:09.641Z,10.60
2019-02-05T12:03:39.176Z,10.70
2019-02-05T12:06:08.859Z,10.80
2019-02-05T12:08:38.436Z,10.80
2019-02-05T12:11:08.075Z,10.80
2019-02-05T12:13:37.589Z,10.80
2019-02-05T12:16:07.343Z,10.80
2019-02-05T12:18:36.847Z,10.90
2019-02-05T12:21:06.377Z,10.90
2019-02-05T12:23:36.279Z,10.80
2019-02-05T12:26:05.939Z,10.80
2019-02-05T12:28:35.485Z,11.00
2019-02-05T12:31:05.242Z,11.10
2019-02-05T12:33:34.829Z,11.00
2019-02-05T12:36:04.655Z,11.00
2019-02-05T12:38:34.200Z,11.10
2019-02-05T12:41:03.765Z,11.10
2019-02-05T12:43:33.398Z,11.20
2019-02-05T12:46:02.991Z,11.10
2019-02-05T12:48:32.572Z,11.20
2019-02-05T12:51:02.015Z,11.10
2019-02-05T12:53:31.646Z,11.20
2019-02-05T12:56:01.220Z,11.10
2019-02-05T12:58:30.902Z,11.10
2019-02-05T13:01:00.427Z,11.20
2019-02-05T13:03:30.736Z,11.20
2019-02-05T13:06:00.296Z,11.20
2019-02-05T13:08:29.876Z,11.20
2019-02-05T13:10:59.809Z,11.20
2019-02-05T13:13:29.461Z,11.20
2019-02-05T13:15:59.690Z,11.30
2019-02-05T13:18:29.192Z,11.30
2019-02-05T13:20:59.318Z,11.30
2019-02-05T13:23:29.099Z,11.30
2019-02-05T13:25:59.499Z,11.30
2019-02-05T13:28:29.403Z,11.40
2019-02-05T13:31:07.593Z,11.40
2019-02-05T13:33:37.234Z,11.50
2019-02-05T13:36:11.167Z,11.50
2019-02-05T13:38:41.183Z,11.50
2019-02-05T13:41:10.843Z,11.40
2019-02-05T13:43:42.804Z,11.50
2019-02-05T13:46:12.444Z,11.50
2019-02-05T13:48:42.058Z,11.40
2019-02-05T13:51:12.531Z,11.40
2019-02-05T13:53:42.157Z,11.30
2019-02-05T13:56:12.166Z,11.30
2019-02-05T13:58:42.478Z,11.30
2019-02-05T14:01:20.180Z,11.30
2019-02-05T14:03:44.743Z,11.30
2019-02-05T14:06:14.278Z,11.30
2019-02-05T14:08:43.963Z,11.30
2019-02-05T14:11:13.873Z,11.20
2019-02-05T14:13:43.392Z,11.20
2019-02-05T14:16:14.727Z,11.30
2019-02-05T14:18:54.604Z,11.30
2019-02-05T14:21:15.613Z,11.30
2019-02-05T14:23:45.514Z,11.40
2019-02-05T14:26:15.076Z,11.40
2019-02-05T14:28:44.646Z,11.40
2019-02-05T14:31:14.202Z,11.40
2019-02-05T14:33:43.958Z,11.40
2019-02-05T14:36:13.528Z,11.40
2019-02-05T14:38:43.291Z,11.40
2019-02-05T14:41:12.855Z,11.40
2019-02-05T14:43:42.416Z,11.40
2019-02-05T14:46:13.159Z,11.50
2019-02-05T14:48:43.157Z,11.50
2019-02-05T14:51:12.750Z,11.60
2019-02-05T14:53:42.289Z,11.60
2019-02-05T14:56:12.091Z,11.50
2019-02-05T14:58:41.517Z,11.50
2019-02-05T15:01:11.181Z,11.40
2019-02-05T15:03:40.672Z,11.40
2019-02-05T15:06:11.719Z,11.40
2019-02-05T15:08:41.485Z,11.40
2019-02-05T15:11:12.427Z,11.40
2019-02-05T15:13:41.863Z,11.40
2019-02-05T15:16:11.387Z,11.30
2019-02-05T15:18:40.808Z,11.30
2019-02-05T15:21:10.367Z,11.40
2019-02-05T15:23:39.850Z,11.30
2019-02-05T15:26:10.404Z,11.30
2019-02-05T15:28:39.902Z,11.30
2019-02-05T15:31:09.368Z,11.30
2019-02-05T15:33:55.064Z,11.30
2019-02-05T15:36:41.516Z,11.20
2019-02-05T15:39:17.089Z,11.20
2019-02-05T15:41:46.544Z,11.20
2019-02-05T15:44:16.234Z,11.20
2019-02-05T15:46:45.734Z,11.10
2019-02-05T15:49:15.263Z,11.10
2019-02-05T15:51:44.790Z,11.10
2019-02-05T15:54:14.226Z,11.00
2019-02-05T15:56:43.771Z,11.00
2019-02-05T15:59:13.303Z,11.00
2019-02-05T16:01:42.758Z,10.90
2019-02-05T16:04:12.235Z,10.90
2019-02-05T16:06:41.671Z,10.90
2019-02-05T16:09:11.737Z,10.80
2019-02-05T16:11:41.243Z,10.70
2019-02-05T16:14:11.035Z,10.60
2019-02-05T16:16:40.533Z,10.60
2019-02-05T16:19:09.991Z,10.50
2019-02-05T16:21:39.515Z,10.50
2019-02-05T16:24:08.959Z,10.50
2019-02-05T16:26:38.501Z,10.40
2019-02-05T16:29:08.138Z,10.40
2019-02-05T16:31:37.610Z,10.40
2019-02-05T16:34:07.196Z,10.30
2019-02-05T16:36:36.595Z,10.40
2019-02-05T16:39:09.973Z,10.30
2019-02-05T16:41:39.403Z,10.20
2019-02-05T16:44:10.128Z,10.20
2019-02-05T16:46:39.572Z,10.20
2019-02-05T16:49:09.115Z,10.30
2019-02-05T16:51:38.591Z,10.20
2019-02-05T16:54:08.103Z,10.20
2019-02-05T16:56:37.841Z,10.20
2019-02-05T16:59:07.513Z,10.10
2019-02-05T17:01:36.912Z,10.10
2019-02-05T17:04:06.444Z,10.10
2019-02-05T17:06:35.889Z,10.20
2019-02-05T17:09:13.242Z,10.10
2019-02-05T17:11:42.674Z,10.00
2019-02-05T17:14:12.120Z,9.90
2019-02-05T17:16:41.597Z,10.00
2019-02-05T17:19:11.084Z,9.90
2019-02-05T17:21:40.551Z,9.80
2019-02-05T17:24:10.020Z,9.80
2019-02-05T17:26:39.572Z,9.80
2019-02-05T17:29:08.998Z,9.70
2019-02-05T17:31:38.412Z,9.50
2019-02-05T17:34:07.920Z,9.50
2019-02-05T17:36:37.609Z,9.40
2019-02-05T17:39:10.452Z,9.30
2019-02-05T17:41:39.890Z,9.20
2019-02-05T17:44:09.348Z,9.10
2019-02-05T17:46:39.970Z,9.10
2019-02-05T17:49:12.116Z,9.00
2019-02-05T17:51:40.958Z,9.00
2019-02-05T17:54:10.639Z,8.90
2019-02-05T17:56:40.212Z,8.90
2019-02-05T17:59:09.877Z,8.90
2019-02-05T18:01:39.431Z,8.90
2019-02-05T18:04:08.875Z,8.80
2019-02-05T18:06:38.368Z,8.80
2019-02-05T18:09:10.621Z,8.90
2019-02-05T18:11:40.164Z,8.90
2019-02-05T18:14:09.699Z,8.80
2019-02-05T18:16:39.184Z,8.80
2019-02-05T18:19:08.753Z,8.70
2019-02-05T18:21:39.586Z,8.80
2019-02-05T18:24:09.057Z,8.80
2019-02-05T18:26:38.653Z,8.80
2019-02-05T18:29:08.228Z,8.80
2019-02-05T18:31:37.935Z,8.80
2019-02-05T18:34:07.452Z,8.80
2019-02-05T18:36:37.184Z,8.70
2019-02-05T18:39:09.537Z,8.80
2019-02-05T18:41:39.111Z,8.70
2019-02-05T18:44:08.724Z,8.70
2019-02-05T18:46:40.593Z,8.70
2019-02-05T18:49:10.449Z,8.80
2019-02-05T18:51:40.149Z,8.70
2019-02-05T18:54:09.703Z,8.80
2019-02-05T18:56:39.269Z,8.80
2019-02-05T18:59:08.832Z,8.80
2019-02-05T19:01:38.364Z,8.80
2019-02-05T19:04:08.850Z,8.70
2019-02-05T19:06:38.663Z,8.60
2019-02-05T19:09:13.892Z,8.60
2019-02-05T19:11:44.549Z,8.60
2019-02-05T19:14:14.358Z,8.70
2019-02-05T19:16:44.172Z,8.70
2019-02-05T19:19:15.470Z,8.60
2019-02-05T19:21:47.397Z,8.60
2019-02-05T19:24:36.975Z,8.60
2019-02-05T19:27:07.070Z,8.60
2019-02-05T19:29:37.096Z,8.60
2019-02-05T19:32:07.256Z,8.50
2019-02-05T19:34:36.981Z,8.40
2019-02-05T19:37:06.748Z,8.40
2019-02-05T19:39:36.569Z,8.40
2019-02-05T19:42:09.090Z,8.30
2019-02-05T19:44:40.273Z,8.20
2019-02-05T19:47:19.160Z,8.10
2019-02-05T19:49:53.105Z,8.10
2019-02-05T19:52:27.791Z,8.00
2019-02-05T19:54:57.964Z,8.00
2019-02-05T19:57:28.099Z,8.10
2019-02-05T19:59:58.389Z,8.00
2019-02-05T20:02:28.309Z,8.00
2019-02-05T20:04:58.352Z,7.90
2019-02-05T20:07:28.638Z,7.90
2019-02-05T20:09:58.765Z,7.90
2019-02-05T20:12:29.744Z,7.80
2019-02-05T20:15:00.119Z,7.80
2019-02-05T20:17:30.140Z,7.70
2019-02-05T20:20:00.171Z,7.70
2019-02-05T20:22:30.166Z,7.60
2019-02-05T20:25:00.348Z,7.60
2019-02-05T20:27:30.350Z,7.60
2019-02-05T20:30:00.354Z,7.60
2019-02-05T20:32:30.121Z,7.50
2019-02-05T20:34:59.819Z,7.50
2019-02-05T20:37:30.100Z,7.50
2019-02-05T20:40:00.351Z,7.40
2019-02-05T20:42:30.784Z,7.30
2019-02-05T20:45:00.707Z,7.30
2019-02-05T20:47:30.489Z,7.30
2019-02-05T20:50:00.434Z,7.30
2019-02-05T20:52:30.331Z,7.30
2019-02-05T20:55:00.533Z,7.30
2019-02-05T20:57:30.611Z,7.20
2019-02-05T21:00:00.620Z,7.10
2019-02-05T21:02:30.539Z,7.00
2019-02-05T21:05:00.623Z,6.90
2019-02-05T21:07:30.327Z,6.90
2019-02-05T21:09:59.876Z,7.00
2019-02-05T21:12:29.579Z,7.00
2019-02-05T21:14:59.428Z,7.00
2019-02-05T21:17:29.289Z,7.00
2019-02-05T21:19:58.869Z,6.90
2019-02-05T21:22:28.718Z,6.90
2019-02-05T21:24:58.357Z,6.90
2019-02-05T21:27:27.882Z,6.90
2019-02-05T21:29:57.737Z,6.80
2019-02-05T21:32:27.245Z,6.80
2019-02-05T21:34:56.704Z,6.70
2019-02-05T21:37:26.148Z,6.50
2019-02-05T21:40:02.610Z,6.40
2019-02-05T21:42:26.724Z,6.30
2019-02-05T21:44:56.454Z,6.20
2019-02-05T21:47:25.981Z,6.20
2019-02-05T21:49:55.492Z,6.30
2019-02-05T21:52:24.975Z,6.40
2019-02-05T21:54:54.500Z,6.50
2019-02-05T21:57:24.109Z,6.60
2019-02-05T21:59:53.858Z,6.60
2019-02-05T22:02:23.470Z,6.70
2019-02-05T22:04:52.925Z,6.80
2019-02-05T22:07:22.590Z,6.90
2019-02-05T22:09:52.157Z,6.80
2019-02-05T22:12:21.646Z,6.90
2019-02-05T22:14:53.184Z,6.90
2019-02-05T22:17:23.038Z,6.80
2019-02-05T22:19:52.677Z,6.70
2019-02-05T22:22:22.252Z,6.60
2019-02-05T22:24:51.802Z,6.50
2019-02-05T22:27:21.387Z,6.50
2019-02-05T22:29:50.974Z,6.60
2019-02-05T22:32:20.660Z,6.60
2019-02-05T22:34:50.189Z,6.70
2019-02-05T22:37:19.792Z,6.80
2019-02-05T22:39:49.387Z,6.70
2019-02-05T22:42:18.924Z,6.70
2019-02-05T22:44:48.506Z,6.60
2019-02-05T22:47:18.031Z,6.60
2019-02-05T22:49:47.615Z,6.60
2019-02-05T22:52:17.263Z,6.50
2019-02-05T22:54:46.784Z,6.50
2019-02-05T22:57:16.280Z,6.50
2019-02-05T22:59:45.682Z,6.40
2019-02-05T23:02:15.217Z,6.40
2019-02-05T23:05:24.712Z,6.40
2019-02-05T23:07:54.178Z,6.30
2019-02-05T23:11:03.093Z,6.40
2019-02-05T23:13:24.981Z,6.20
2019-02-05T23:15:54.760Z,6.10
2019-02-05T23:18:24.197Z,6.00
2019-02-05T23:20:54.146Z,6.00
2019-02-05T23:23:23.553Z,5.90
2019-02-05T23:25:52.984Z,5.80
2019-02-05T23:28:22.510Z,5.80
2019-02-05T23:30:52.394Z,5.90
2019-02-05T23:33:21.827Z,5.80
2019-02-05T23:35:51.949Z,5.40
2019-02-05T23:38:21.503Z,5.20
2019-02-05T23:40:50.889Z,5.10
2019-02-05T23:43:20.367Z,5.00
2019-02-05T23:46:00.876Z,4.90
2019-02-05T23:48:21.525Z,5.10
2019-02-05T23:50:51.038Z,5.20
2019-02-05T23:53:20.457Z,5.10
2019-02-05T23:55:49.849Z,5.10
2019-02-05T23:58:19.440Z,5.00
